Time;durP1;ratioP1;P1;durP2;ratioP2;P2;SDS_P1;SDS_P2;PMS_P1;PMS_P2;Temp;Humidity;BMP_temperature;BMP_pressure;BME280_temperature;BME280_humidity;BME280_pressure;Samples;Min_cycle;Max_cycle;Signal;HPM_P1;HPM_P2
2022/01/28 00:01:01;;;;;;;73.82;30.27;;;;;;;4.15;81.04;101605.50;5058907;28;20401;-67
2022/01/28 00:03:46;;;;;;;70.97;29.25;;;;;;;4.16;80.94;101607.13;5053484;28;20056;-67
2022/01/28 00:06:31;;;;;;;70.85;25.17;;;;;;;4.07;81.37;101604.06;5057808;28;20048;-68
2022/01/28 00:09:16;;;;;;;59.83;22.55;;;;;;;4.27;80.58;101585.44;5055747;28;20409;-67
2022/01/28 00:12:02;;;;;;;69.75;27.02;;;;;;;4.18;80.15;101580.78;5052280;28;20055;-67
2022/01/28 00:38:59;;;;;;;65.72;25.83;;;;;;;3.61;82.62;101573.03;5033670;28;20406;-67
2022/01/28 00:41:44;;;;;;;57.88;20.05;;;;;;;3.55;82.74;101581.31;5031838;28;20052;-67
2022/01/28 00:44:29;;;;;;;55.00;20.33;;;;;;;3.59;83.26;101587.81;5035910;28;20056;-67
2022/01/28 00:47:14;;;;;;;51.05;21.83;;;;;;;3.50;82.73;101579.34;5033598;28;20045;-67
2022/01/28 00:49:59;;;;;;;44.70;18.60;;;;;;;3.49;82.95;101571.53;5037654;28;20071;-66
2022/01/28 00:52:44;;;;;;;47.97;19.48;;;;;;;3.60;82.74;101574.13;5037532;28;20053;-67
2022/01/28 00:55:29;;;;;;;51.40;18.95;;;;;;;3.68;82.71;101564.81;5053160;28;20454;-67
2022/01/28 00:58:14;;;;;;;54.33;19.73;;;;;;;3.71;83.20;101562.41;5044540;28;20409;-67
2022/01/28 01:00:59;;;;;;;58.58;19.30;;;;;;;3.66;82.98;101570.41;5038357;28;20048;-67
2022/01/28 01:03:44;;;;;;;55.25;21.08;;;;;;;3.73;82.84;101556.78;5037887;28;20052;-67
2022/01/28 01:06:29;;;;;;;51.53;20.50;;;;;;;3.68;82.94;101554.84;5038122;28;20512;-67
2022/01/28 01:09:14;;;;;;;56.25;21.83;;;;;;;3.64;83.48;101552.91;5035973;28;20065;-67
2022/01/28 01:11:59;;;;;;;53.17;19.10;;;;;;;3.65;83.11;101558.06;5031889;28;20416;-68
2022/01/28 01:14:45;;;;;;;51.70;20.35;;;;;;;3.51;83.52;101559.44;5032093;28;20655;-67
2022/01/28 01:17:45;;;;;;;63.42;26.13;;;;;;;3.62;83.70;101561.22;5036413;28;20048;-67
2022/01/28 01:23:25;;;;;;;48.28;21.25;;;;;;;3.77;83.03;101557.91;5055349;28;20049;-66
2022/01/28 01:26:11;;;;;;;44.45;20.48;;;;;;;3.64;82.68;101553.72;5034686;28;20055;-66
2022/01/28 01:28:56;;;;;;;58.60;26.30;;;;;;;3.79;82.60;101562.00;5028022;28;20053;-66
2022/01/28 01:31:43;;;;;;;46.85;20.45;;;;;;;3.77;82.74;101563.31;5036241;28;20048;-66
2022/01/28 01:34:28;;;;;;;54.83;24.85;;;;;;;3.77;82.30;101574.06;5038712;28;20053;-67
2022/01/28 01:37:13;;;;;;;46.97;20.15;;;;;;;3.78;82.37;101568.44;5041614;28;20405;-67
2022/01/28 01:39:57;;;;;;;50.20;19.80;;;;;;;3.77;82.17;101579.44;5041523;28;20056;-67
2022/01/28 01:42:54;;;;;;;40.97;19.27;;;;;;;3.73;82.46;101573.75;5041412;28;20120;-66
2022/01/28 01:54:39;;;;;;;64.18;25.92;;;;;;;3.90;80.87;101557.56;5019303;28;20528;-67
2022/01/28 01:57:24;;;;;;;54.00;24.27;;;;;;;3.80;81.76;101562.81;5018946;28;20049;-66
2022/01/28 02:00:10;;;;;;;39.42;18.67;;;;;;;3.84;81.62;101543.25;5021385;28;20049;-66
2022/01/28 02:03:05;;;;;;;56.15;22.58;;;;;;;3.79;81.31;101545.88;5037985;28;20048;-67
2022/01/28 02:05:50;;;;;;;48.25;22.58;;;;;;;3.80;81.48;101546.69;5035201;28;20041;-66
2022/01/28 02:08:36;;;;;;;61.45;23.13;;;;;;;3.75;81.84;101531.28;5030091;28;20053;-67
2022/01/28 02:11:21;;;;;;;65.43;23.90;;;;;;;3.66;82.49;101521.19;5014440;28;20069;-66
2022/01/28 02:14:06;;;;;;;43.08;20.92;;;;;;;3.57;82.46;101510.06;5045036;28;20052;-66
2022/01/28 02:16:51;;;;;;;45.60;19.70;;;;;;;3.60;83.30;101514.16;5044764;28;20048;-66
2022/01/28 02:19:36;;;;;;;53.00;20.40;;;;;;;3.71;82.89;101511.31;5034107;28;20055;-67
2022/01/28 02:22:21;;;;;;;65.22;25.25;;;;;;;3.73;83.04;101519.16;5040718;28;20048;-67
2022/01/28 02:25:06;;;;;;;58.58;22.15;;;;;;;3.78;83.27;101511.13;5037025;28;20567;-67
2022/01/28 02:27:51;;;;;;;57.13;21.08;;;;;;;3.62;84.36;101522.75;5040743;28;20047;-66
2022/01/28 02:30:36;;;;;;;57.88;22.35;;;;;;;3.43;85.18;101514.19;5030094;28;20052;-66
2022/01/28 02:33:24;;;;;;;43.95;19.60;;;;;;;3.56;85.39;101499.56;5017679;28;20049;-66
2022/01/28 02:36:09;;;;;;;63.38;25.00;;;;;;;3.45;85.63;101507.47;5053709;28;20539;-66
2022/01/28 02:38:54;;;;;;;43.35;19.08;;;;;;;3.45;85.36;101499.41;5029485;28;20049;-66
2022/01/28 02:41:43;;;;;;;52.92;19.38;;;;;;;3.47;85.32;101495.66;5034147;28;20049;-66
2022/01/28 02:45:13;;;;;;;54.92;23.13;;;;;;;3.34;84.72;101491.47;5038335;28;20523;-66
2022/01/28 02:47:38;;;;;;;60.72;23.98;;;;;;;3.31;85.38;101481.22;5033381;28;20056;-67
2022/01/28 02:50:25;;;;;;;61.65;24.65;;;;;;;3.37;85.63;101464.09;5040283;28;20532;-67
2022/01/28 02:53:21;;;;;;;62.05;23.77;;;;;;;3.52;85.39;101466.16;5040051;28;20052;-67
2022/01/28 02:59:26;;;;;;;57.38;23.50;;;;;;;3.53;85.52;101441.72;5031549;28;20044;-67
2022/01/28 03:02:11;;;;;;;55.67;19.40;;;;;;;3.45;84.94;101420.66;5056094;28;20512;-65
2022/01/28 03:07:44;;;;;;;62.83;24.70;;;;;;;3.51;84.43;101414.25;5018545;28;20053;-65
2022/01/28 03:10:41;;;;;;;50.38;20.42;;;;;;;3.45;85.06;101399.16;5016772;28;20049;-66
2022/01/28 03:16:32;;;;;;;62.72;24.30;;;;;;;3.44;85.23;101408.28;5037627;28;20052;-66
2022/01/28 03:19:20;;;;;;;60.92;25.08;;;;;;;3.53;84.76;101401.41;5059663;28;20052;-66
2022/01/28 03:22:05;;;;;;;68.65;24.60;;;;;;;3.39;84.81;101400.97;5059769;28;20056;-66
2022/01/28 03:24:52;;;;;;;58.42;18.42;;;;;;;3.47;85.02;101396.19;5056353;28;20043;-66
2022/01/28 03:27:52;;;;;;;60.28;22.88;;;;;;;3.43;85.41;101393.22;5042177;28;20052;-66
2022/01/28 03:30:37;;;;;;;65.75;24.90;;;;;;;3.35;84.85;101383.69;5033341;28;20044;-67
2022/01/28 03:33:22;;;;;;;55.35;19.30;;;;;;;3.24;85.14;101381.97;5059201;28;20052;-66
2022/01/28 03:36:09;;;;;;;36.28;17.23;;;;;;;3.17;85.03;101384.03;5052702;28;20067;-67
2022/01/28 03:38:54;;;;;;;63.92;22.45;;;;;;;3.25;85.50;101374.72;5050279;28;20060;-67
2022/01/28 03:41:39;;;;;;;49.63;18.92;;;;;;;3.13;85.71;101380.22;5039017;28;20417;-66
2022/01/28 03:44:24;;;;;;;53.60;18.02;;;;;;;3.09;85.83;101379.09;5034387;28;20052;-67
2022/01/28 03:47:09;;;;;;;49.30;17.15;;;;;;;3.01;86.11;101380.31;5045827;28;20044;-67
2022/01/28 03:49:54;;;;;;;52.15;20.08;;;;;;;3.08;86.04;101374.78;5056643;28;20048;-67
2022/01/28 03:52:39;;;;;;;43.03;16.17;;;;;;;3.12;85.87;101388.53;5058861;28;20056;-66
2022/01/28 03:55:24;;;;;;;57.13;16.50;;;;;;;2.88;85.87;101387.94;5054353;28;20043;-66
2022/01/28 03:58:09;;;;;;;46.72;16.48;;;;;;;2.91;86.83;101385.56;5056891;28;20048;-67
2022/01/28 04:00:55;;;;;;;43.10;17.70;;;;;;;3.04;86.52;101387.09;5058866;28;20071;-67
2022/01/28 04:03:47;;;;;;;51.47;21.63;;;;;;;3.11;86.65;101371.59;5058561;28;20048;-67
2022/01/28 04:12:42;;;;;;;61.33;19.48;;;;;;;2.99;85.28;101346.72;5056299;28;20520;-66
2022/01/28 04:18:30;;;;;;;55.75;21.30;;;;;;;2.78;86.96;101374.38;5058595;28;20064;-65
2022/01/28 04:21:15;;;;;;;;;;;;;;;2.73;86.89;101382.34;5046319;28;20059;-67
2022/01/28 04:23:59;;;;;;;83.65;20.67;;;;;;;2.80;86.77;101381.09;5037660;28;19913;-67
2022/01/28 04:26:45;;;;;;;40.15;16.25;;;;;;;3.03;86.77;101382.78;5037813;28;20064;-66
2022/01/28 04:29:29;;;;;;;42.78;17.55;;;;;;;2.91;85.89;101387.44;5035832;28;20065;-67
2022/01/28 04:32:14;;;;;;;35.00;15.95;;;;;;;2.92;86.40;101386.38;5051690;28;20047;-66
2022/01/28 04:34:59;;;;;;;39.53;17.98;;;;;;;2.91;85.86;101430.41;5054755;28;20052;-66
2022/01/28 04:38:15;;;;;;;39.83;16.30;;;;;;;2.77;85.60;101380.78;5058402;28;20120;-65
2022/01/28 04:41:29;;;;;;;51.10;19.70;;;;;;;2.86;85.62;101417.72;5056500;28;20412;-66
2022/01/28 04:44:14;;;;;;;35.35;17.23;;;;;;;2.92;84.89;101407.88;5055206;28;20515;-66
2022/01/28 04:47:09;;;;;;;50.08;22.38;;;;;;;2.74;84.72;101402.78;5053227;28;20519;-65
2022/01/28 04:53:03;;;;;;;51.92;22.40;;;;;;;3.04;83.44;101419.31;5022526;28;20095;-65
2022/01/28 04:56:02;;;;;;;44.55;20.83;;;;;;;3.18;83.41;101415.22;5015907;28;20045;-66
2022/01/28 05:13:47;;;;;;;50.28;21.17;;;;;;;3.03;84.09;101449.13;5031998;28;20056;-65
2022/01/28 05:16:43;;;;;;;45.45;21.30;;;;;;;3.10;83.43;101423.69;5036318;28;20052;-65
2022/01/28 05:28:48;;;;;;;52.97;19.98;;;;;;;2.94;84.12;101441.50;5015753;28;20060;-64
2022/01/28 05:31:33;;;;;;;52.08;22.33;;;;;;;2.90;84.05;101456.44;5026803;28;20045;-65
2022/01/28 05:34:18;;;;;;;56.75;23.15;;;;;;;3.08;84.84;101447.31;5034182;28;20587;-65
2022/01/28 05:37:04;;;;;;;41.95;18.10;;;;;;;2.78;85.01;101473.72;5025534;28;20414;-64
2022/01/28 05:39:49;;;;;;;55.42;22.15;;;;;;;2.89;84.70;101462.09;5040270;28;20127;-64
2022/01/28 05:42:34;;;;;;;42.10;16.75;;;;;;;3.12;84.41;101485.25;5018333;28;20045;-65
2022/01/28 05:45:19;;;;;;;42.55;16.63;;;;;;;3.30;84.09;101469.63;5014704;28;20072;-64
2022/01/28 05:48:04;;;;;;;35.85;17.92;;;;;;;3.51;83.07;101459.97;5020388;28;20064;-65
2022/01/28 05:50:49;;;;;;;42.65;16.70;;;;;;;3.72;80.78;101463.72;5018518;28;20057;-63
2022/01/28 05:53:34;;;;;;;37.47;15.32;;;;;;;3.69;80.69;101480.38;5021546;28;20048;-64
2022/01/28 05:56:19;;;;;;;41.15;18.30;;;;;;;3.63;82.05;101474.13;5038304;28;20512;-63
2022/01/28 05:59:04;;;;;;;48.72;22.58;;;;;;;3.47;82.22;101474.16;5028753;28;20065;-65
2022/01/28 06:01:49;;;;;;;45.20;17.30;;;;;;;3.42;82.33;101475.72;5036264;28;20056;-64
2022/01/28 06:04:37;;;;;;;35.20;15.60;;;;;;;3.47;83.16;101471.47;5031389;28;20048;-64
2022/01/28 06:07:22;;;;;;;56.53;21.98;;;;;;;3.52;83.91;101483.09;5034802;28;20116;-64
2022/01/28 06:10:07;;;;;;;52.00;17.88;;;;;;;3.34;84.04;101475.34;5039757;28;20053;-65
2022/01/28 06:12:51;;;;;;;52.30;17.65;;;;;;;3.76;81.41;101465.66;5034645;28;20052;-65
2022/01/28 06:15:42;;;;;;;33.15;15.48;;;;;;;3.86;81.04;101460.38;5022408;28;20053;-65
2022/01/28 06:18:27;;;;;;;49.80;20.42;;;;;;;3.92;80.81;101458.56;5036091;28;20056;-65
2022/01/28 06:21:12;;;;;;;42.88;17.80;;;;;;;3.97;80.56;101460.50;5034581;28;20045;-65
2022/01/28 06:23:57;;;;;;;45.00;17.52;;;;;;;4.02;80.49;101484.78;5039915;28;20052;-65
2022/01/28 06:26:42;;;;;;;41.88;16.95;;;;;;;4.12;79.11;101472.25;5056146;28;20048;-64
2022/01/28 06:29:27;;;;;;;39.70;15.63;;;;;;;3.93;78.82;101465.59;5053897;28;20052;-64
2022/01/28 06:32:12;;;;;;;34.53;16.33;;;;;;;3.99;78.81;101479.91;5043805;28;20532;-65
2022/01/28 06:35:00;;;;;;;44.10;16.33;;;;;;;4.01;78.47;101493.94;5039420;28;20052;-65
2022/01/28 06:37:45;;;;;;;54.75;20.75;;;;;;;4.15;77.59;101512.13;5031591;28;20053;-65
2022/01/28 06:40:30;;;;;;;38.58;17.20;;;;;;;4.21;77.95;101518.38;5030340;28;20040;-65
2022/01/28 06:43:15;;;;;;;34.95;15.80;;;;;;;4.03;77.86;101524.06;5016713;28;20057;-65
2022/01/28 06:46:00;;;;;;;44.75;18.42;;;;;;;3.71;80.50;101537.41;5025996;28;20053;-65
2022/01/28 06:48:45;;;;;;;39.25;18.58;;;;;;;4.04;79.22;101537.28;5038436;28;20052;-64
2022/01/28 06:51:32;;;;;;;32.47;14.98;;;;;;;3.94;79.33;101529.09;5036406;28;20048;-64
2022/01/28 06:54:17;;;;;;;49.75;20.90;;;;;;;3.81;79.53;101543.72;5034389;28;20052;-63
2022/01/28 06:57:02;;;;;;;39.22;16.30;;;;;;;3.92;80.24;101549.22;5038529;28;20078;-64
2022/01/28 06:59:47;;;;;;;43.92;17.65;;;;;;;3.72;80.83;101557.84;5036707;28;20048;-64
2022/01/28 07:02:32;;;;;;;45.40;19.27;;;;;;;3.69;81.02;101556.50;5034651;28;20112;-64
2022/01/28 07:05:16;;;;;;;50.40;24.25;;;;;;;3.77;81.12;101561.44;5035613;28;20044;-64
2022/01/28 07:08:03;;;;;;;42.10;17.27;;;;;;;3.43;82.95;101574.13;5036481;28;20052;-64
2022/01/28 07:10:47;;;;;;;52.65;21.17;;;;;;;3.47;82.41;101595.13;5023790;28;20635;-65
2022/01/28 07:13:32;;;;;;;36.38;15.40;;;;;;;3.62;81.85;101598.06;5029415;28;20520;-65
2022/01/28 07:16:17;;;;;;;37.45;17.50;;;;;;;3.24;84.02;101605.03;5031337;28;20048;-65
2022/01/28 07:19:03;;;;;;;35.17;16.73;;;;;;;3.40;82.38;101608.78;5031436;28;20048;-66
2022/01/28 07:21:49;;;;;;;54.72;21.58;;;;;;;3.48;82.73;101618.28;5025018;28;20044;-65
2022/01/28 07:24:35;;;;;;;70.50;22.98;;;;;;;3.52;82.08;101646.31;5030128;28;20414;-66
2022/01/28 07:27:20;;;;;;;59.45;24.80;;;;;;;3.40;81.94;101628.38;5025845;28;20045;-66
2022/01/28 07:30:07;;;;;;;63.80;23.27;;;;;;;3.20;82.60;101625.38;5033208;28;20048;-66
2022/01/28 07:32:52;;;;;;;62.30;25.40;;;;;;;3.06;84.68;101625.94;5031320;28;20049;-66
2022/01/28 07:35:37;;;;;;;46.88;19.55;;;;;;;3.07;84.80;101649.88;5032557;28;20052;-67
2022/01/28 07:38:22;;;;;;;47.15;19.98;;;;;;;2.87;86.02;101654.88;5014295;28;20065;-67
2022/01/28 07:41:07;;;;;;;55.60;21.60;;;;;;;2.64;87.35;101652.31;5017950;28;20065;-67
2022/01/28 07:43:52;;;;;;;45.38;17.98;;;;;;;3.03;86.78;101664.03;5015691;28;20521;-67
2022/01/28 07:46:37;;;;;;;42.78;19.08;;;;;;;3.27;85.75;101681.66;5027830;28;20052;-66
2022/01/28 07:49:22;;;;;;;45.42;17.77;;;;;;;3.41;85.14;101662.28;5029820;28;20049;-67
2022/01/28 07:52:07;;;;;;;51.20;20.63;;;;;;;3.43;83.82;101672.78;5036157;28;20056;-69
2022/01/28 07:54:53;;;;;;;58.03;20.40;;;;;;;3.52;83.00;101702.75;5033757;28;20414;-67
2022/01/28 07:57:37;;;;;;;;;;;;;;;3.70;82.41;101691.78;5037653;28;20052;-68
2022/01/28 08:00:26;;;;;;;71.65;25.73;;;;;;;3.53;83.15;101712.47;5030222;28;19913;-67
2022/01/28 08:03:12;;;;;;;78.53;29.30;;;;;;;3.49;82.56;101716.72;5024677;28;20053;-67
2022/01/28 08:05:57;;;;;;;92.80;31.88;;;;;;;3.38;82.92;101719.22;5032573;28;20052;-66
2022/01/28 08:08:42;;;;;;;75.75;26.17;;;;;;;3.33;83.74;101708.38;5035982;28;20048;-65
2022/01/28 08:11:27;;;;;;;61.70;25.13;;;;;;;3.52;83.14;101716.22;5026588;28;20053;-65
2022/01/28 08:14:13;;;;;;;67.82;25.38;;;;;;;3.58;81.72;101726.00;5037188;28;20088;-65
2022/01/28 08:16:59;;;;;;;80.78;30.60;;;;;;;3.74;82.01;101720.63;5036151;28;20055;-65
2022/01/28 08:19:44;;;;;;;97.15;35.10;;;;;;;3.68;81.51;101729.66;5034023;28;20061;-65
2022/01/28 08:22:30;;;;;;;87.35;29.65;;;;;;;3.53;82.04;101723.22;5031907;28;20044;-64
2022/01/28 08:25:18;;;;;;;;;;;;;;;4.13;81.13;101740.31;5034752;28;20052;-64
2022/01/28 08:28:04;;;;;;;94.78;34.70;;;;;;;3.99;80.40;101749.81;5032886;28;19913;-64
2022/01/28 08:30:49;;;;;;;101.43;34.75;;;;;;;3.91;80.54;101750.22;5027311;28;20060;-64
2022/01/28 08:33:34;;;;;;;68.97;27.73;;;;;;;3.95;80.67;101772.88;5029196;28;20034;-64
2022/01/28 08:36:20;;;;;;;74.65;30.15;;;;;;;4.12;79.34;101776.38;5030359;28;20052;-65
2022/01/28 08:39:06;;;;;;;72.95;29.52;;;;;;;4.41;78.04;101784.34;5029858;28;20393;-65
2022/01/28 08:41:51;;;;;;;101.78;37.40;;;;;;;4.25;78.54;101781.44;5034771;28;20045;-64
2022/01/28 08:44:36;;;;;;;81.75;30.77;;;;;;;4.49;78.24;101790.09;5029262;28;20041;-65
2022/01/28 08:47:21;;;;;;;71.85;30.88;;;;;;;4.71;77.27;101796.34;5027614;28;20049;-65
2022/01/28 08:50:06;;;;;;;83.80;29.70;;;;;;;4.66;76.83;101798.97;5036484;28;20070;-65
2022/01/28 08:52:51;;;;;;;91.65;35.83;;;;;;;4.79;77.07;101819.31;5030880;28;20508;-65
2022/01/28 08:55:38;;;;;;;72.65;28.75;;;;;;;4.92;76.11;101829.75;5023893;28;20500;-65
2022/01/28 08:58:23;;;;;;;93.35;37.15;;;;;;;4.60;77.21;101815.31;5030901;28;20072;-65
2022/01/28 09:01:09;;;;;;;;;;;;;;;4.81;76.41;101816.41;5032976;28;20056;-65
2022/01/28 09:03:54;;;;;;;68.78;26.45;;;;;;;4.87;75.89;101815.41;5030631;28;19912;-65
2022/01/28 09:06:39;;;;;;;65.85;25.50;;;;;;;5.36;76.69;101835.13;5033856;28;20064;-68
2022/01/28 09:09:24;;;;;;;70.72;27.98;;;;;;;5.87;72.56;101847.28;5031236;28;20048;-68
2022/01/28 09:12:26;;;;;;;65.75;26.65;;;;;;;6.69;69.66;101858.47;5030808;28;20043;-68
2022/01/28 09:15:11;;;;;;;83.15;33.63;;;;;;;6.52;69.01;101849.69;5034270;28;20048;-67
2022/01/28 09:17:58;;;;;;;61.85;26.73;;;;;;;7.34;70.36;101854.44;5034216;28;20048;-67
2022/01/28 09:20:42;;;;;;;97.40;34.53;;;;;;;6.55;68.81;101851.88;5032072;28;20409;-68
2022/01/28 09:23:27;;;;;;;53.50;23.38;;;;;;;7.69;64.64;101856.41;5037501;28;20060;-72
2022/01/28 09:26:13;;;;;;;64.80;25.70;;;;;;;8.25;59.74;101854.56;5031082;28;20068;-72
2022/01/28 09:28:58;;;;;;;139.23;35.15;;;;;;;8.57;57.19;101854.31;5032077;28;20048;-74
2022/01/28 09:31:43;;;;;;;59.10;24.67;;;;;;;8.50;58.45;101864.59;5036658;28;20413;-75
2022/01/28 09:34:28;;;;;;;57.10;25.63;;;;;;;8.36;58.62;101877.91;5036377;28;20049;-72
2022/01/28 09:37:13;;;;;;;60.35;23.00;;;;;;;8.28;57.86;101883.81;5032506;28;20052;-73
2022/01/28 09:39:58;;;;;;;65.20;26.42;;;;;;;8.24;57.45;101885.47;5033463;28;20044;-75
2022/01/28 09:42:45;;;;;;;60.10;25.90;;;;;;;8.20;58.23;101895.22;5041962;28;20056;-75
2022/01/28 09:45:30;;;;;;;90.00;34.22;;;;;;;8.30;57.17;101891.72;5036967;28;20049;-75
2022/01/28 09:48:18;;;;;;;64.57;27.30;;;;;;;8.29;58.10;101888.16;5040060;28;20052;-72
2022/01/28 09:51:03;;;;;;;83.80;35.80;;;;;;;8.05;57.59;101895.19;5041263;28;20052;-74
2022/01/28 09:53:48;;;;;;;77.78;33.72;;;;;;;7.99;58.26;101896.28;5031288;28;20417;-74
2022/01/28 09:56:34;;;;;;;58.33;28.17;;;;;;;7.94;57.82;101896.25;5025691;28;20045;-74
2022/01/28 09:59:19;;;;;;;71.22;32.33;;;;;;;7.17;60.99;101905.22;5033769;28;20044;-71
2022/01/28 10:02:04;;;;;;;60.33;29.40;;;;;;;6.77;61.97;101895.81;5035816;28;20053;-72
2022/01/28 10:04:49;;;;;;;74.85;32.15;;;;;;;6.84;62.64;101907.22;5037679;28;20068;-72
2022/01/28 10:07:34;;;;;;;64.55;26.85;;;;;;;6.80;64.62;101913.41;5040872;28;20048;-74
2022/01/28 10:10:19;;;;;;;65.85;26.80;;;;;;;6.98;62.53;101917.56;5039870;28;20064;-70
2022/01/28 10:16:27;;;;;;;75.43;32.85;;;;;;;7.37;62.68;101937.78;5041499;28;20425;-73
2022/01/28 10:19:12;;;;;;;83.60;36.40;;;;;;;7.20;63.67;101920.94;5041029;28;20413;-73
2022/01/28 10:21:57;;;;;;;64.10;28.33;;;;;;;7.33;62.99;101920.44;5038350;28;20071;-72
2022/01/28 10:24:42;;;;;;;60.67;26.70;;;;;;;7.58;62.94;101914.31;5038150;28;20052;-72
2022/01/28 10:27:27;;;;;;;74.57;29.75;;;;;;;7.47;62.91;101916.16;5034757;28;20052;-72
2022/01/28 10:30:18;;;;;;;64.00;28.65;;;;;;;7.48;63.13;101925.09;5040697;28;20048;-72
2022/01/28 10:33:14;;;;;;;87.28;36.80;;;;;;;7.15;64.35;101929.03;5039503;28;20056;-72
2022/01/28 10:36:01;;;;;;;;;;;;;;;7.53;62.84;101923.22;5030894;28;20061;-71
2022/01/28 10:38:46;;;;;;;77.57;32.08;;;;;;;7.89;62.74;101913.31;5030885;28;19913;-72
2022/01/28 10:41:31;;;;;;;67.88;28.38;;;;;;;7.92;61.69;101920.13;5027491;28;20508;-71
2022/01/28 10:44:16;;;;;;;67.22;29.33;;;;;;;7.72;62.03;101935.19;5032861;28;20064;-71
2022/01/28 10:47:06;;;;;;;72.18;29.58;;;;;;;7.80;61.68;101949.31;5037487;28;20048;-71
2022/01/28 10:49:51;;;;;;;82.72;35.03;;;;;;;7.56;62.76;101951.69;5029183;28;20048;-71
2022/01/28 10:52:36;;;;;;;66.07;29.23;;;;;;;7.55;62.84;101945.44;5029943;28;20533;-70
2022/01/28 10:55:21;;;;;;;67.50;29.38;;;;;;;7.58;62.08;101942.19;5029035;28;20049;-71
2022/01/28 10:58:09;;;;;;;58.72;26.70;;;;;;;7.88;61.58;101946.06;5036535;28;20064;-71
2022/01/28 11:00:58;;;;;;;85.28;34.70;;;;;;;8.19;60.88;101950.47;5030051;28;20048;-71
2022/01/28 11:03:43;;;;;;;82.50;36.22;;;;;;;8.31;60.67;101955.69;5031945;28;20052;-70
2022/01/28 11:06:28;;;;;;;65.00;27.48;;;;;;;8.02;60.60;101972.41;5028657;28;20540;-71
2022/01/28 11:09:15;;;;;;;58.53;26.88;;;;;;;7.85;61.63;101979.94;5026418;28;20041;-71
2022/01/28 11:12:00;;;;;;;86.60;35.55;;;;;;;7.77;61.51;101975.03;5025851;28;20065;-71
2022/01/28 11:14:45;;;;;;;64.60;27.85;;;;;;;7.89;61.57;101966.66;5030104;28;20052;-71
2022/01/28 11:17:30;;;;;;;65.40;27.80;;;;;;;8.52;59.70;101951.91;5033235;28;20068;-72
2022/01/28 11:20:20;;;;;;;68.22;28.90;;;;;;;8.58;59.03;101948.13;5037341;28;20049;-71
2022/01/28 11:23:32;;;;;;;80.13;35.97;;;;;;;9.22;57.12;101959.16;5034823;28;20053;-72
2022/01/28 11:26:42;;;;;;;74.03;33.05;;;;;;;9.12;56.54;101959.16;5037371;28;20045;-71
2022/01/28 11:29:28;;;;;;;69.80;32.40;;;;;;;9.30;55.64;101965.88;5018864;28;20417;-71
2022/01/28 11:32:17;;;;;;;77.03;35.42;;;;;;;9.66;54.88;101963.88;5035352;28;20048;-72
2022/01/28 11:35:04;;;;;;;77.80;33.40;;;;;;;9.22;55.60;101970.00;5035726;28;20509;-73
2022/01/28 11:37:50;;;;;;;87.10;35.10;;;;;;;9.19;55.86;101962.41;5034464;28;20056;-72
2022/01/28 11:40:51;;;;;;;76.32;32.92;;;;;;;9.08;56.41;101957.28;5038004;28;20413;-73
2022/01/28 11:43:54;;;;;;;81.15;36.08;;;;;;;9.18;56.39;101954.53;5033906;28;20056;-73
2022/01/28 11:46:44;;;;;;;78.95;33.85;;;;;;;8.88;56.91;101936.44;5026932;28;20060;-73
2022/01/28 11:49:29;;;;;;;71.28;33.80;;;;;;;8.78;57.32;101928.31;5036364;28;20048;-72
2022/01/28 11:52:29;;;;;;;65.65;28.75;;;;;;;8.77;57.33;101929.38;5034856;28;20049;-72
2022/01/28 11:55:14;;;;;;;65.40;33.78;;;;;;;8.83;56.43;101933.72;5035023;28;20048;-72
2022/01/28 11:58:06;;;;;;;62.65;27.50;;;;;;;8.99;56.34;101936.13;5035887;28;20056;-73
2022/01/28 12:00:54;;;;;;;72.03;33.58;;;;;;;9.00;56.35;101912.50;5033390;28;20041;-73
2022/01/28 12:03:39;;;;;;;70.70;33.38;;;;;;;8.81;56.71;101912.28;5027127;28;20052;-73
2022/01/28 12:06:24;;;;;;;69.13;29.08;;;;;;;9.07;56.83;101923.09;5033151;28;20080;-72
2022/01/28 12:09:09;;;;;;;61.25;26.52;;;;;;;9.15;56.50;101919.78;5031322;28;20084;-73
2022/01/28 12:11:54;;;;;;;67.55;28.38;;;;;;;9.08;56.26;101903.84;5032631;28;20048;-73
2022/01/28 12:15:01;;;;;;;54.58;25.92;;;;;;;9.24;56.07;101902.69;5035569;28;20049;-72
2022/01/28 12:17:49;;;;;;;73.75;34.40;;;;;;;9.63;55.19;101901.97;5032719;28;20155;-73
2022/01/28 12:20:46;;;;;;;77.05;33.35;;;;;;;9.70;55.19;101895.13;5035759;28;20048;-73
2022/01/28 12:23:31;;;;;;;80.55;35.67;;;;;;;9.99;54.87;101889.81;5031852;28;20037;-75
2022/01/28 12:26:18;;;;;;;61.22;27.67;;;;;;;9.84;55.03;101881.75;5032255;28;20056;-73
2022/01/28 12:29:04;;;;;;;70.28;32.40;;;;;;;9.66;54.77;101888.63;5035727;28;20045;-72
2022/01/28 12:31:57;;;;;;;75.50;32.67;;;;;;;9.50;54.63;101883.59;5034153;28;20048;-72
2022/01/28 12:34:43;;;;;;;74.97;32.38;;;;;;;9.91;53.81;101871.38;5036235;28;20049;-69
2022/01/28 12:37:33;;;;;;;73.13;32.35;;;;;;;9.94;54.18;101868.09;5035854;28;20516;-71
2022/01/28 12:40:24;;;;;;;77.50;34.03;;;;;;;10.10;54.31;101857.94;5033305;28;20040;-71
2022/01/28 12:43:09;;;;;;;80.30;33.55;;;;;;;9.81;55.06;101863.28;5037040;28;20485;-71
2022/01/28 12:46:05;;;;;;;75.10;32.70;;;;;;;9.92;54.79;101858.59;5032474;28;20053;-71
2022/01/28 12:48:54;;;;;;;76.65;34.65;;;;;;;9.84;55.48;101854.59;5030303;28;20045;-71
2022/01/28 12:51:40;;;;;;;70.53;32.38;;;;;;;10.02;54.65;101839.50;5034891;28;20060;-71
2022/01/28 12:54:33;;;;;;;79.30;34.10;;;;;;;9.71;54.23;101857.91;5031602;28;20045;-71
2022/01/28 12:57:20;;;;;;;66.63;31.35;;;;;;;10.17;53.95;101850.28;5032130;28;20040;-74
2022/01/28 13:00:06;;;;;;;70.90;32.40;;;;;;;10.23;52.94;101863.56;5035102;28;20037;-72
2022/01/28 13:02:51;;;;;;;77.60;32.28;;;;;;;10.55;52.26;101867.63;5027917;28;20034;-72
2022/01/28 13:05:43;;;;;;;125.03;33.60;;;;;;;10.76;51.39;101855.44;5021679;28;20038;-72
2022/01/28 13:08:29;;;;;;;75.97;33.13;;;;;;;11.39;49.94;101847.88;5028713;28;20038;-72
2022/01/28 13:11:13;;;;;;;67.45;31.90;;;;;;;16.03;39.08;101843.06;5032004;28;20042;-72
2022/01/28 13:13:58;;;;;;;53.78;24.25;;;;;;;18.68;33.10;101850.03;5024986;28;20089;-72
2022/01/28 13:16:45;;;;;;;71.05;33.72;;;;;;;19.13;31.73;101824.31;5037939;28;20037;-72
2022/01/28 13:19:30;;;;;;;62.95;30.70;;;;;;;20.12;30.10;101835.56;5035875;28;20038;-72
2022/01/28 13:22:22;;;;;;;55.55;25.58;;;;;;;21.08;28.67;101851.91;5029252;28;20061;-72
2022/01/28 13:25:17;;;;;;;68.57;34.20;;;;;;;20.74;28.54;101826.56;5033220;28;20042;-73
2022/01/28 13:28:05;;;;;;;52.78;24.17;;;;;;;21.91;27.60;101856.94;5024062;28;20045;-73
2022/01/28 13:30:55;;;;;;;68.13;34.00;;;;;;;20.49;28.99;101842.53;5028808;28;20037;-75
2022/01/28 13:33:40;;;;;;;65.55;32.67;;;;;;;20.65;29.31;101811.34;5036363;28;20042;-73
2022/01/28 13:36:25;;;;;;;;;;;;;;;21.36;27.98;101837.94;5029235;28;20045;-73
2022/01/28 13:39:21;;;;;;;71.40;34.60;;;;;;;20.44;28.92;101811.59;5034998;28;19916;-73
2022/01/28 13:42:12;;;;;;;68.88;31.55;;;;;;;20.51;29.19;101819.28;5036855;28;20033;-73
2022/01/28 13:45:03;;;;;;;96.15;35.17;;;;;;;22.04;26.54;101819.66;5029480;28;20045;-73
2022/01/28 13:47:52;;;;;;;69.20;32.63;;;;;;;21.26;27.33;101790.31;5028863;28;20037;-73
2022/01/28 13:50:43;;;;;;;69.05;33.78;;;;;;;21.56;27.15;101814.66;5036897;28;20412;-73
2022/01/28 13:56:13;;;;;;;63.92;32.53;;;;;;;22.08;26.62;101809.44;5017503;28;20038;-73
2022/01/28 13:58:58;;;;;;;;;;;;;;;21.12;27.23;101822.34;5039419;28;20425;-73
2022/01/28 14:01:47;;;;;;;53.60;23.93;;;;;;;20.53;28.45;101806.69;5035692;28;19913;-72
2022/01/28 14:04:39;;;;;;;59.08;31.92;;;;;;;21.11;27.64;101806.91;5019268;28;20268;-73
2022/01/28 14:07:24;;;;;;;61.75;31.50;;;;;;;21.29;27.40;101806.19;5024263;28;20501;-73
2022/01/28 14:10:15;;;;;;;;;;;;;;;20.90;28.09;101801.69;5038820;28;20046;-73
2022/01/28 14:13:18;;;;;;;76.13;35.72;;;;;;;20.23;28.35;101811.78;5038658;28;19919;-73
2022/01/28 14:16:13;;;;;;;66.20;32.83;;;;;;;20.04;29.86;101806.94;5035020;28;20041;-73
2022/01/28 14:18:58;;;;;;;67.80;32.67;;;;;;;18.24;32.05;101798.47;5041174;28;20050;-73